Main page
METAR-TAF:

METAR-TAF

Airports :

Logroño–Agoncillo Airport

Logroño, Spain

latitude: 42-27N, longitude: 002-20W, elevation: 353 m

Current weather observation

The report was made 16 minutes ago, at 20:00 UTC
Wind 7 kt from the West
Temperature 1°C
Humidity 75%
Pressure 1031 hPa
Visibility 10 km or more
no clouds below 1500 m and no cumulonimbus

METAR: LELO 212000Z AUTO 27007KT CAVOK 01/M03 Q1031

Time: 21:16 (20:16 UTC)

Forecast

The report was made 6 hours and 16 minutes ago, at 14:00 UTC
Forecast valid from 21 at 15 UTC to 22 at 15 UTC
Wind 9 kt from the West/Northwest
Visibility 10 km or more
Few clouds at a height of 4000 ft

TAF: LELO 211400Z 2115/2215 29009KT 9999 FEW040 TX09/2214Z TNM02/2207Z

Weather observations and forecasts of more than 4000 airports (METAR and TAF reports).

The available stations are represented by yellow and red dots on the map.

Hover mouse over dot to see the name of the station.

Then click to see weather observations and forecasts.

To change the map : click on the green buttons with a black cross to zoom in, on the green button with a dash to zoom out, or on the green arrows for adjacent maps.


METAR-TAF: